sensor_id;sensor_type;location;lat;lon;timestamp;P1;durP1;ratioP1;P2;durP2;ratioP2
69856;SDS011;57147;53.582;10.112;2022-11-20T00:03:08;4.00;;;2.08;;
69856;SDS011;57147;53.582;10.112;2022-11-20T00:08:11;5.40;;;2.17;;
69856;SDS011;57147;53.582;10.112;2022-11-20T00:13:12;4.78;;;2.30;;
69856;SDS011;57147;53.582;10.112;2022-11-20T00:18:12;4.18;;;1.95;;
69856;SDS011;57147;53.582;10.112;2022-11-20T00:23:15;5.07;;;2.97;;
69856;SDS011;57147;53.582;10.112;2022-11-20T00:28:16;3.58;;;2.38;;
69856;SDS011;57147;53.582;10.112;2022-11-20T00:33:16;6.60;;;2.42;;
69856;SDS011;57147;53.582;10.112;2022-11-20T00:38:20;6.85;;;3.35;;
69856;SDS011;57147;53.582;10.112;2022-11-20T00:43:20;4.75;;;2.13;;
69856;SDS011;57147;53.582;10.112;2022-11-20T00:48:21;5.63;;;3.03;;
69856;SDS011;57147;53.582;10.112;2022-11-20T00:53:24;4.00;;;1.88;;
69856;SDS011;57147;53.582;10.112;2022-11-20T00:58:25;5.28;;;3.42;;
69856;SDS011;57147;53.582;10.112;2022-11-20T01:03:30;4.07;;;2.35;;
69856;SDS011;57147;53.582;10.112;2022-11-20T01:08:34;5.15;;;2.58;;
69856;SDS011;57147;53.582;10.112;2022-11-20T01:13:36;5.07;;;2.70;;
69856;SDS011;57147;53.582;10.112;2022-11-20T01:18:38;5.88;;;4.40;;
69856;SDS011;57147;53.582;10.112;2022-11-20T01:23:42;4.15;;;2.15;;
69856;SDS011;57147;53.582;10.112;2022-11-20T01:28:44;5.15;;;1.67;;
69856;SDS011;57147;53.582;10.112;2022-11-20T01:33:47;4.53;;;2.00;;
69856;SDS011;57147;53.582;10.112;2022-11-20T01:38:53;7.78;;;2.03;;
69856;SDS011;57147;53.582;10.112;2022-11-20T01:43:55;5.10;;;3.00;;
69856;SDS011;57147;53.582;10.112;2022-11-20T01:48:57;4.78;;;3.10;;
69856;SDS011;57147;53.582;10.112;2022-11-20T01:54:04;3.42;;;2.00;;
69856;SDS011;57147;53.582;10.112;2022-11-20T01:59:10;4.65;;;2.83;;
69856;SDS011;57147;53.582;10.112;2022-11-20T02:04:12;5.93;;;2.75;;
69856;SDS011;57147;53.582;10.112;2022-11-20T02:09:16;5.78;;;3.35;;
69856;SDS011;57147;53.582;10.112;2022-11-20T02:14:17;8.00;;;2.28;;
69856;SDS011;57147;53.582;10.112;2022-11-20T02:19:20;4.72;;;2.67;;
69856;SDS011;57147;53.582;10.112;2022-11-20T02:24:27;4.60;;;3.75;;
69856;SDS011;57147;53.582;10.112;2022-11-20T02:29:31;4.95;;;2.42;;
69856;SDS011;57147;53.582;10.112;2022-11-20T02:34:35;5.30;;;2.63;;
69856;SDS011;57147;53.582;10.112;2022-11-20T02:39:38;4.45;;;3.15;;
69856;SDS011;57147;53.582;10.112;2022-11-20T02:44:40;6.38;;;3.88;;
69856;SDS011;57147;53.582;10.112;2022-11-20T02:49:40;4.35;;;2.65;;
69856;SDS011;57147;53.582;10.112;2022-11-20T02:54:44;6.00;;;1.90;;
69856;SDS011;57147;53.582;10.112;2022-11-20T02:59:44;4.70;;;3.28;;
69856;SDS011;57147;53.582;10.112;2022-11-20T03:04:45;4.60;;;2.80;;
69856;SDS011;57147;53.582;10.112;2022-11-20T03:09:48;5.15;;;3.47;;
69856;SDS011;57147;53.582;10.112;2022-11-20T03:14:48;4.65;;;2.60;;
69856;SDS011;57147;53.582;10.112;2022-11-20T03:19:49;3.83;;;2.50;;
69856;SDS011;57147;53.582;10.112;2022-11-20T03:24:52;4.88;;;2.83;;
69856;SDS011;57147;53.582;10.112;2022-11-20T03:29:52;5.28;;;4.78;;
69856;SDS011;57147;53.582;10.112;2022-11-20T03:34:53;4.38;;;3.13;;
69856;SDS011;57147;53.582;10.112;2022-11-20T03:39:56;4.90;;;2.85;;
69856;SDS011;57147;53.582;10.112;2022-11-20T03:44:57;4.30;;;1.92;;
69856;SDS011;57147;53.582;10.112;2022-11-20T03:49:57;3.40;;;2.13;;
69856;SDS011;57147;53.582;10.112;2022-11-20T03:55:00;4.57;;;2.72;;
69856;SDS011;57147;53.582;10.112;2022-11-20T04:00:01;3.58;;;2.17;;
69856;SDS011;57147;53.582;10.112;2022-11-20T04:05:02;3.78;;;2.50;;
69856;SDS011;57147;53.582;10.112;2022-11-20T04:10:06;4.45;;;2.88;;
69856;SDS011;57147;53.582;10.112;2022-11-20T04:15:08;3.08;;;2.20;;
69856;SDS011;57147;53.582;10.112;2022-11-20T04:20:09;5.55;;;2.63;;
69856;SDS011;57147;53.582;10.112;2022-11-20T04:25:12;5.05;;;2.45;;
69856;SDS011;57147;53.582;10.112;2022-11-20T04:30:13;3.95;;;2.80;;
69856;SDS011;57147;53.582;10.112;2022-11-20T04:35:14;4.35;;;2.45;;
69856;SDS011;57147;53.582;10.112;2022-11-20T04:40:17;4.15;;;2.25;;
69856;SDS011;57147;53.582;10.112;2022-11-20T04:45:18;3.10;;;2.55;;
69856;SDS011;57147;53.582;10.112;2022-11-20T04:50:18;4.18;;;1.83;;
69856;SDS011;57147;53.582;10.112;2022-11-20T04:55:21;4.20;;;2.15;;
69856;SDS011;57147;53.582;10.112;2022-11-20T05:00:22;5.97;;;2.60;;
69856;SDS011;57147;53.582;10.112;2022-11-20T05:05:22;3.63;;;2.50;;
69856;SDS011;57147;53.582;10.112;2022-11-20T05:10:26;5.88;;;2.85;;
69856;SDS011;57147;53.582;10.112;2022-11-20T05:15:27;9.60;;;3.65;;
69856;SDS011;57147;53.582;10.112;2022-11-20T05:20:28;4.00;;;2.38;;
69856;SDS011;57147;53.582;10.112;2022-11-20T05:25:31;3.78;;;3.40;;
69856;SDS011;57147;53.582;10.112;2022-11-20T05:30:31;4.28;;;2.63;;
69856;SDS011;57147;53.582;10.112;2022-11-20T05:35:32;5.22;;;2.25;;
69856;SDS011;57147;53.582;10.112;2022-11-20T05:40:35;4.80;;;2.97;;
69856;SDS011;57147;53.582;10.112;2022-11-20T05:45:36;3.83;;;1.95;;
69856;SDS011;57147;53.582;10.112;2022-11-20T05:50:36;5.43;;;2.53;;
69856;SDS011;57147;53.582;10.112;2022-11-20T05:55:39;4.68;;;3.40;;
69856;SDS011;57147;53.582;10.112;2022-11-20T06:00:40;3.63;;;2.83;;
69856;SDS011;57147;53.582;10.112;2022-11-20T06:05:40;4.45;;;2.42;;
69856;SDS011;57147;53.582;10.112;2022-11-20T06:10:44;4.22;;;3.20;;
69856;SDS011;57147;53.582;10.112;2022-11-20T06:15:47;5.75;;;3.03;;
69856;SDS011;57147;53.582;10.112;2022-11-20T06:20:48;4.63;;;3.05;;
69856;SDS011;57147;53.582;10.112;2022-11-20T06:25:51;4.78;;;4.30;;
69856;SDS011;57147;53.582;10.112;2022-11-20T06:30:52;5.22;;;3.85;;
69856;SDS011;57147;53.582;10.112;2022-11-20T06:35:55;6.18;;;4.40;;
69856;SDS011;57147;53.582;10.112;2022-11-20T06:40:59;7.20;;;4.07;;
69856;SDS011;57147;53.582;10.112;2022-11-20T06:45:59;7.60;;;5.30;;
69856;SDS011;57147;53.582;10.112;2022-11-20T06:51:00;7.45;;;4.93;;
69856;SDS011;57147;53.582;10.112;2022-11-20T06:56:06;8.77;;;5.57;;
69856;SDS011;57147;53.582;10.112;2022-11-20T07:01:09;9.57;;;5.88;;
69856;SDS011;57147;53.582;10.112;2022-11-20T07:06:10;9.65;;;5.93;;
69856;SDS011;57147;53.582;10.112;2022-11-20T07:11:13;9.02;;;6.53;;
69856;SDS011;57147;53.582;10.112;2022-11-20T07:16:14;8.27;;;5.07;;
69856;SDS011;57147;53.582;10.112;2022-11-20T07:21:15;8.13;;;6.15;;
69856;SDS011;57147;53.582;10.112;2022-11-20T07:26:18;7.40;;;5.88;;
69856;SDS011;57147;53.582;10.112;2022-11-20T07:31:18;8.02;;;5.35;;
69856;SDS011;57147;53.582;10.112;2022-11-20T07:36:19;7.80;;;4.50;;
69856;SDS011;57147;53.582;10.112;2022-11-20T07:41:22;8.15;;;4.65;;
69856;SDS011;57147;53.582;10.112;2022-11-20T07:46:22;7.40;;;5.03;;
69856;SDS011;57147;53.582;10.112;2022-11-20T07:51:23;6.88;;;3.97;;
69856;SDS011;57147;53.582;10.112;2022-11-20T07:56:26;7.35;;;4.22;;
69856;SDS011;57147;53.582;10.112;2022-11-20T08:01:26;5.30;;;3.47;;
69856;SDS011;57147;53.582;10.112;2022-11-20T08:06:27;5.97;;;3.42;;
69856;SDS011;57147;53.582;10.112;2022-11-20T08:11:30;6.45;;;3.63;;
69856;SDS011;57147;53.582;10.112;2022-11-20T08:16:30;4.68;;;2.88;;
69856;SDS011;57147;53.582;10.112;2022-11-20T08:21:31;6.95;;;3.70;;
69856;SDS011;57147;53.582;10.112;2022-11-20T08:26:34;4.85;;;3.35;;
69856;SDS011;57147;53.582;10.112;2022-11-20T08:31:35;3.95;;;2.72;;
69856;SDS011;57147;53.582;10.112;2022-11-20T08:36:36;5.05;;;3.80;;
69856;SDS011;57147;53.582;10.112;2022-11-20T08:41:39;4.85;;;3.05;;
69856;SDS011;57147;53.582;10.112;2022-11-20T08:46:40;4.10;;;1.40;;
69856;SDS011;57147;53.582;10.112;2022-11-20T08:51:41;4.05;;;2.55;;
69856;SDS011;57147;53.582;10.112;2022-11-20T08:56:45;4.22;;;2.38;;
69856;SDS011;57147;53.582;10.112;2022-11-20T09:01:45;3.92;;;2.78;;
69856;SDS011;57147;53.582;10.112;2022-11-20T09:06:46;3.80;;;3.10;;
69856;SDS011;57147;53.582;10.112;2022-11-20T09:11:49;3.50;;;1.90;;
69856;SDS011;57147;53.582;10.112;2022-11-20T09:16:50;4.88;;;3.10;;
69856;SDS011;57147;53.582;10.112;2022-11-20T09:21:50;4.60;;;3.28;;
69856;SDS011;57147;53.582;10.112;2022-11-20T09:26:54;2.70;;;2.03;;
69856;SDS011;57147;53.582;10.112;2022-11-20T09:31:54;3.50;;;2.10;;
69856;SDS011;57147;53.582;10.112;2022-11-20T09:36:55;3.80;;;2.70;;
69856;SDS011;57147;53.582;10.112;2022-11-20T09:42:11;7.45;;;3.35;;
69856;SDS011;57147;53.582;10.112;2022-11-20T09:47:25;4.60;;;2.65;;
69856;SDS011;57147;53.582;10.112;2022-11-20T09:52:32;6.15;;;2.47;;
69856;SDS011;57147;53.582;10.112;2022-11-20T09:57:45;6.18;;;3.47;;
69856;SDS011;57147;53.582;10.112;2022-11-20T10:02:49;5.57;;;3.65;;
69856;SDS011;57147;53.582;10.112;2022-11-20T10:08:02;4.82;;;3.17;;
69856;SDS011;57147;53.582;10.112;2022-11-20T10:13:20;3.75;;;3.08;;
69856;SDS011;57147;53.582;10.112;2022-11-20T10:18:36;4.10;;;3.22;;
69856;SDS011;57147;53.582;10.112;2022-11-20T10:23:47;4.22;;;3.25;;
69856;SDS011;57147;53.582;10.112;2022-11-20T10:29:12;3.72;;;2.63;;
69856;SDS011;57147;53.582;10.112;2022-11-20T10:34:18;4.57;;;3.85;;
69856;SDS011;57147;53.582;10.112;2022-11-20T10:39:25;6.28;;;3.50;;
69856;SDS011;57147;53.582;10.112;2022-11-20T10:44:33;3.55;;;2.60;;
69856;SDS011;57147;53.582;10.112;2022-11-20T10:49:36;4.60;;;3.42;;
69856;SDS011;57147;53.582;10.112;2022-11-20T10:54:38;5.80;;;3.75;;
69856;SDS011;57147;53.582;10.112;2022-11-20T10:59:52;5.10;;;3.58;;
69856;SDS011;57147;53.582;10.112;2022-11-20T11:05:00;2.92;;;2.55;;
69856;SDS011;57147;53.582;10.112;2022-11-20T11:10:13;3.47;;;2.88;;
69856;SDS011;57147;53.582;10.112;2022-11-20T11:15:27;4.15;;;2.58;;
69856;SDS011;57147;53.582;10.112;2022-11-20T11:20:29;3.83;;;2.83;;
69856;SDS011;57147;53.582;10.112;2022-11-20T11:25:30;3.95;;;2.72;;
69856;SDS011;57147;53.582;10.112;2022-11-20T11:30:43;3.08;;;2.13;;
69856;SDS011;57147;53.582;10.112;2022-11-20T11:35:45;4.50;;;3.25;;
69856;SDS011;57147;53.582;10.112;2022-11-20T11:40:47;3.25;;;2.42;;
69856;SDS011;57147;53.582;10.112;2022-11-20T11:45:54;3.17;;;1.75;;
69856;SDS011;57147;53.582;10.112;2022-11-20T11:50:56;5.97;;;2.45;;
69856;SDS011;57147;53.582;10.112;2022-11-20T11:55:58;2.63;;;1.55;;
69856;SDS011;57147;53.582;10.112;2022-11-20T12:01:11;3.58;;;1.75;;
69856;SDS011;57147;53.582;10.112;2022-11-20T12:06:24;3.05;;;1.35;;
69856;SDS011;57147;53.582;10.112;2022-11-20T12:11:29;3.30;;;2.58;;
69856;SDS011;57147;53.582;10.112;2022-11-20T12:16:36;3.92;;;1.92;;
69856;SDS011;57147;53.582;10.112;2022-11-20T12:21:40;2.65;;;1.88;;
69856;SDS011;57147;53.582;10.112;2022-11-20T12:26:52;2.83;;;1.67;;
69856;SDS011;57147;53.582;10.112;2022-11-20T12:32:12;1.85;;;1.40;;
69856;SDS011;57147;53.582;10.112;2022-11-20T12:37:30;2.67;;;1.60;;
69856;SDS011;57147;53.582;10.112;2022-11-20T12:42:42;3.60;;;1.25;;
69856;SDS011;57147;53.582;10.112;2022-11-20T12:53:29;2.35;;;1.95;;
69856;SDS011;57147;53.582;10.112;2022-11-20T12:58:39;3.35;;;3.05;;
69856;SDS011;57147;53.582;10.112;2022-11-20T13:03:49;2.78;;;1.98;;
69856;SDS011;57147;53.582;10.112;2022-11-20T13:08:58;4.40;;;2.28;;
69856;SDS011;57147;53.582;10.112;2022-11-20T13:14:03;4.20;;;2.35;;
69856;SDS011;57147;53.582;10.112;2022-11-20T13:19:12;6.65;;;3.65;;
69856;SDS011;57147;53.582;10.112;2022-11-20T13:24:24;3.85;;;2.58;;
69856;SDS011;57147;53.582;10.112;2022-11-20T13:29:26;2.78;;;1.95;;
69856;SDS011;57147;53.582;10.112;2022-11-20T13:34:30;2.53;;;1.63;;
69856;SDS011;57147;53.582;10.112;2022-11-20T13:39:33;4.40;;;1.92;;
69856;SDS011;57147;53.582;10.112;2022-11-20T13:44:37;2.95;;;2.13;;
69856;SDS011;57147;53.582;10.112;2022-11-20T13:49:39;5.70;;;2.67;;
69856;SDS011;57147;53.582;10.112;2022-11-20T13:54:58;2.92;;;1.35;;
69856;SDS011;57147;53.582;10.112;2022-11-20T14:00:09;2.83;;;1.67;;
69856;SDS011;57147;53.582;10.112;2022-11-20T14:10:23;2.78;;;2.13;;
69856;SDS011;57147;53.582;10.112;2022-11-20T14:15:26;3.33;;;2.20;;
69856;SDS011;57147;53.582;10.112;2022-11-20T14:20:29;5.05;;;2.17;;
69856;SDS011;57147;53.582;10.112;2022-11-20T14:25:33;2.90;;;1.67;;
69856;SDS011;57147;53.582;10.112;2022-11-20T14:30:37;6.20;;;3.65;;
69856;SDS011;57147;53.582;10.112;2022-11-20T14:35:44;3.33;;;1.67;;
69856;SDS011;57147;53.582;10.112;2022-11-20T14:40:48;3.83;;;2.67;;
69856;SDS011;57147;53.582;10.112;2022-11-20T14:45:51;3.13;;;2.45;;
69856;SDS011;57147;53.582;10.112;2022-11-20T14:50:56;3.50;;;2.47;;
69856;SDS011;57147;53.582;10.112;2022-11-20T14:56:00;5.03;;;2.15;;
69856;SDS011;57147;53.582;10.112;2022-11-20T15:01:03;4.10;;;3.70;;
69856;SDS011;57147;53.582;10.112;2022-11-20T15:06:05;4.20;;;2.78;;
69856;SDS011;57147;53.582;10.112;2022-11-20T15:11:18;3.35;;;1.88;;
69856;SDS011;57147;53.582;10.112;2022-11-20T15:16:23;3.60;;;2.30;;
69856;SDS011;57147;53.582;10.112;2022-11-20T15:21:24;3.55;;;2.40;;
69856;SDS011;57147;53.582;10.112;2022-11-20T15:26:27;5.85;;;3.00;;
69856;SDS011;57147;53.582;10.112;2022-11-20T15:31:28;3.50;;;2.13;;
69856;SDS011;57147;53.582;10.112;2022-11-20T15:36:28;4.60;;;4.20;;
69856;SDS011;57147;53.582;10.112;2022-11-20T15:41:31;3.65;;;2.50;;
69856;SDS011;57147;53.582;10.112;2022-11-20T15:46:32;3.25;;;2.38;;
69856;SDS011;57147;53.582;10.112;2022-11-20T15:51:38;4.93;;;4.35;;
69856;SDS011;57147;53.582;10.112;2022-11-20T15:56:42;3.70;;;2.58;;
69856;SDS011;57147;53.582;10.112;2022-11-20T16:01:42;4.97;;;3.03;;
69856;SDS011;57147;53.582;10.112;2022-11-20T16:06:43;6.57;;;3.22;;
69856;SDS011;57147;53.582;10.112;2022-11-20T16:11:46;5.30;;;2.88;;
69856;SDS011;57147;53.582;10.112;2022-11-20T16:16:47;5.28;;;3.33;;
69856;SDS011;57147;53.582;10.112;2022-11-20T16:21:47;4.05;;;3.25;;
69856;SDS011;57147;53.582;10.112;2022-11-20T16:26:51;4.75;;;4.18;;
69856;SDS011;57147;53.582;10.112;2022-11-20T16:31:53;5.25;;;4.75;;
69856;SDS011;57147;53.582;10.112;2022-11-20T16:36:53;5.60;;;4.80;;
69856;SDS011;57147;53.582;10.112;2022-11-20T16:41:56;5.70;;;4.60;;
69856;SDS011;57147;53.582;10.112;2022-11-20T16:46:57;5.70;;;3.88;;
69856;SDS011;57147;53.582;10.112;2022-11-20T16:51:58;6.32;;;5.20;;
69856;SDS011;57147;53.582;10.112;2022-11-20T16:57:01;6.65;;;3.63;;
69856;SDS011;57147;53.582;10.112;2022-11-20T17:02:02;9.43;;;5.38;;
69856;SDS011;57147;53.582;10.112;2022-11-20T17:07:03;9.20;;;6.15;;
69856;SDS011;57147;53.582;10.112;2022-11-20T17:12:06;11.07;;;6.82;;
69856;SDS011;57147;53.582;10.112;2022-11-20T17:17:06;6.88;;;4.60;;
69856;SDS011;57147;53.582;10.112;2022-11-20T17:22:07;6.22;;;5.28;;
69856;SDS011;57147;53.582;10.112;2022-11-20T17:27:11;11.98;;;7.22;;
69856;SDS011;57147;53.582;10.112;2022-11-20T17:32:15;7.97;;;5.95;;
69856;SDS011;57147;53.582;10.112;2022-11-20T17:37:16;7.28;;;4.15;;
69856;SDS011;57147;53.582;10.112;2022-11-20T17:42:19;8.55;;;5.05;;
69856;SDS011;57147;53.582;10.112;2022-11-20T17:47:19;7.97;;;4.68;;
69856;SDS011;57147;53.582;10.112;2022-11-20T17:52:20;6.45;;;4.72;;
69856;SDS011;57147;53.582;10.112;2022-11-20T17:57:23;8.27;;;6.03;;
69856;SDS011;57147;53.582;10.112;2022-11-20T18:02:24;7.57;;;5.20;;
69856;SDS011;57147;53.582;10.112;2022-11-20T18:07:24;10.43;;;6.53;;
69856;SDS011;57147;53.582;10.112;2022-11-20T18:12:27;8.73;;;5.60;;
69856;SDS011;57147;53.582;10.112;2022-11-20T18:17:28;14.60;;;9.90;;
69856;SDS011;57147;53.582;10.112;2022-11-20T18:22:28;12.80;;;7.60;;
69856;SDS011;57147;53.582;10.112;2022-11-20T18:27:32;11.15;;;8.52;;
69856;SDS011;57147;53.582;10.112;2022-11-20T18:32:33;10.82;;;7.93;;
69856;SDS011;57147;53.582;10.112;2022-11-20T18:37:33;13.18;;;9.55;;
69856;SDS011;57147;53.582;10.112;2022-11-20T18:42:38;12.52;;;9.30;;
69856;SDS011;57147;53.582;10.112;2022-11-20T18:47:38;11.00;;;8.30;;
69856;SDS011;57147;53.582;10.112;2022-11-20T18:52:40;12.02;;;7.63;;
69856;SDS011;57147;53.582;10.112;2022-11-20T18:57:44;10.55;;;6.85;;
69856;SDS011;57147;53.582;10.112;2022-11-20T19:02:44;10.27;;;8.25;;
69856;SDS011;57147;53.582;10.112;2022-11-20T19:07:45;10.63;;;7.55;;
69856;SDS011;57147;53.582;10.112;2022-11-20T19:12:48;13.23;;;8.48;;
69856;SDS011;57147;53.582;10.112;2022-11-20T19:17:49;9.02;;;6.00;;
69856;SDS011;57147;53.582;10.112;2022-11-20T19:22:49;18.00;;;12.27;;
69856;SDS011;57147;53.582;10.112;2022-11-20T19:27:52;15.77;;;9.52;;
69856;SDS011;57147;53.582;10.112;2022-11-20T19:32:53;19.02;;;11.25;;
69856;SDS011;57147;53.582;10.112;2022-11-20T19:37:53;20.33;;;13.27;;
69856;SDS011;57147;53.582;10.112;2022-11-20T19:42:56;19.77;;;12.80;;
69856;SDS011;57147;53.582;10.112;2022-11-20T19:47:57;17.20;;;10.68;;
69856;SDS011;57147;53.582;10.112;2022-11-20T19:52:57;19.13;;;14.20;;
69856;SDS011;57147;53.582;10.112;2022-11-20T19:58:01;17.73;;;11.35;;
69856;SDS011;57147;53.582;10.112;2022-11-20T20:03:01;20.15;;;12.70;;
69856;SDS011;57147;53.582;10.112;2022-11-20T20:08:02;27.00;;;16.55;;
69856;SDS011;57147;53.582;10.112;2022-11-20T20:13:06;19.50;;;11.88;;
69856;SDS011;57147;53.582;10.112;2022-11-20T20:18:06;18.13;;;13.35;;
69856;SDS011;57147;53.582;10.112;2022-11-20T20:23:07;17.92;;;11.13;;
69856;SDS011;57147;53.582;10.112;2022-11-20T20:28:10;17.50;;;11.45;;
69856;SDS011;57147;53.582;10.112;2022-11-20T20:33:11;18.65;;;12.45;;
69856;SDS011;57147;53.582;10.112;2022-11-20T20:38:11;16.42;;;10.73;;
69856;SDS011;57147;53.582;10.112;2022-11-20T20:43:15;18.65;;;11.20;;
69856;SDS011;57147;53.582;10.112;2022-11-20T20:48:15;18.90;;;14.02;;
69856;SDS011;57147;53.582;10.112;2022-11-20T20:53:17;18.80;;;12.02;;
69856;SDS011;57147;53.582;10.112;2022-11-20T20:58:20;18.13;;;11.48;;
69856;SDS011;57147;53.582;10.112;2022-11-20T21:03:21;18.90;;;11.07;;
69856;SDS011;57147;53.582;10.112;2022-11-20T21:08:22;17.80;;;10.77;;
69856;SDS011;57147;53.582;10.112;2022-11-20T21:13:25;18.98;;;13.27;;
69856;SDS011;57147;53.582;10.112;2022-11-20T21:18:25;19.30;;;10.68;;
69856;SDS011;57147;53.582;10.112;2022-11-20T21:23:26;18.13;;;10.68;;
69856;SDS011;57147;53.582;10.112;2022-11-20T21:28:30;19.52;;;11.35;;
69856;SDS011;57147;53.582;10.112;2022-11-20T21:33:34;20.35;;;12.82;;
69856;SDS011;57147;53.582;10.112;2022-11-20T21:38:36;22.52;;;12.65;;
69856;SDS011;57147;53.582;10.112;2022-11-20T21:43:39;24.75;;;13.82;;
69856;SDS011;57147;53.582;10.112;2022-11-20T21:48:40;24.00;;;14.23;;
69856;SDS011;57147;53.582;10.112;2022-11-20T21:53:42;22.75;;;13.05;;
69856;SDS011;57147;53.582;10.112;2022-11-20T21:58:46;23.55;;;12.52;;
69856;SDS011;57147;53.582;10.112;2022-11-20T22:03:48;21.10;;;12.75;;
69856;SDS011;57147;53.582;10.112;2022-11-20T22:08:50;22.48;;;11.75;;
69856;SDS011;57147;53.582;10.112;2022-11-20T22:13:53;22.80;;;14.35;;
69856;SDS011;57147;53.582;10.112;2022-11-20T22:18:54;21.33;;;12.07;;
69856;SDS011;57147;53.582;10.112;2022-11-20T22:23:56;20.63;;;12.73;;
69856;SDS011;57147;53.582;10.112;2022-11-20T22:29:00;21.35;;;12.05;;
69856;SDS011;57147;53.582;10.112;2022-11-20T22:34:01;21.48;;;11.73;;
69856;SDS011;57147;53.582;10.112;2022-11-20T22:39:02;21.17;;;11.93;;
69856;SDS011;57147;53.582;10.112;2022-11-20T22:44:06;21.30;;;12.10;;
69856;SDS011;57147;53.582;10.112;2022-11-20T22:49:07;21.67;;;11.25;;
69856;SDS011;57147;53.582;10.112;2022-11-20T22:54:09;21.42;;;12.27;;
69856;SDS011;57147;53.582;10.112;2022-11-20T22:59:13;24.40;;;16.35;;
69856;SDS011;57147;53.582;10.112;2022-11-20T23:04:13;21.55;;;13.13;;
69856;SDS011;57147;53.582;10.112;2022-11-20T23:09:14;20.02;;;12.27;;
69856;SDS011;57147;53.582;10.112;2022-11-20T23:14:17;21.33;;;13.02;;
69856;SDS011;57147;53.582;10.112;2022-11-20T23:19:18;21.98;;;13.00;;
69856;SDS011;57147;53.582;10.112;2022-11-20T23:24:18;23.35;;;13.32;;
69856;SDS011;57147;53.582;10.112;2022-11-20T23:29:21;22.67;;;14.10;;
69856;SDS011;57147;53.582;10.112;2022-11-20T23:34:22;21.88;;;13.15;;
69856;SDS011;57147;53.582;10.112;2022-11-20T23:39:23;21.77;;;13.50;;
69856;SDS011;57147;53.582;10.112;2022-11-20T23:44:26;24.55;;;16.58;;
69856;SDS011;57147;53.582;10.112;2022-11-20T23:49:26;22.08;;;13.52;;
69856;SDS011;57147;53.582;10.112;2022-11-20T23:54:27;21.73;;;11.55;;
69856;SDS011;57147;53.582;10.112;2022-11-20T23:59:30;22.25;;;12.73;;
